sensor_id;sensor_type;location;lat;lon;timestamp;pressure;altitude;pressure_sealevel;temperature;humidity
15405;BME280;7801;48.124;11.590;2023-02-14T00:01:46;97235.25;;;2.30;93.93
15405;BME280;7801;48.124;11.590;2023-02-14T00:04:13;97232.28;;;2.40;93.95
15405;BME280;7801;48.124;11.590;2023-02-14T00:06:39;97234.56;;;2.56;92.96
15405;BME280;7801;48.124;11.590;2023-02-14T00:09:06;97237.81;;;2.58;92.65
15405;BME280;7801;48.124;11.590;2023-02-14T00:11:31;97242.25;;;2.58;92.47
15405;BME280;7801;48.124;11.590;2023-02-14T00:13:57;97248.31;;;2.65;92.26
15405;BME280;7801;48.124;11.590;2023-02-14T00:16:41;97251.56;;;2.32;93.05
15405;BME280;7801;48.124;11.590;2023-02-14T00:19:07;97248.09;;;2.19;93.62
15405;BME280;7801;48.124;11.590;2023-02-14T00:21:35;97241.56;;;2.42;93.32
15405;BME280;7801;48.124;11.590;2023-02-14T00:24:03;97245.75;;;2.37;93.71
15405;BME280;7801;48.124;11.590;2023-02-14T00:26:28;97244.41;;;2.48;93.31
15405;BME280;7801;48.124;11.590;2023-02-14T00:28:54;97237.97;;;2.50;93.22
15405;BME280;7801;48.124;11.590;2023-02-14T00:31:19;97242.19;;;2.51;92.65
15405;BME280;7801;48.124;11.590;2023-02-14T00:33:45;97242.91;;;2.25;92.75
15405;BME280;7801;48.124;11.590;2023-02-14T00:36:10;97246.97;;;2.00;93.77
15405;BME280;7801;48.124;11.590;2023-02-14T00:38:36;97241.28;;;2.31;93.24
15405;BME280;7801;48.124;11.590;2023-02-14T00:41:01;97248.22;;;2.11;93.56
15405;BME280;7801;48.124;11.590;2023-02-14T00:43:27;97244.28;;;2.21;93.10
15405;BME280;7801;48.124;11.590;2023-02-14T00:45:52;97238.81;;;2.16;93.26
15405;BME280;7801;48.124;11.590;2023-02-14T00:48:18;97241.78;;;2.06;93.04
15405;BME280;7801;48.124;11.590;2023-02-14T00:50:43;97241.69;;;2.28;92.69
15405;BME280;7801;48.124;11.590;2023-02-14T00:53:10;97242.09;;;2.31;92.67
15405;BME280;7801;48.124;11.590;2023-02-14T00:55:36;97239.72;;;2.36;92.24
15405;BME280;7801;48.124;11.590;2023-02-14T00:58:01;97236.91;;;2.03;93.61
15405;BME280;7801;48.124;11.590;2023-02-14T01:00:26;97245.28;;;1.92;94.17
15405;BME280;7801;48.124;11.590;2023-02-14T01:02:52;97255.75;;;1.92;94.92
15405;BME280;7801;48.124;11.590;2023-02-14T01:05:17;97255.44;;;2.02;94.27
15405;BME280;7801;48.124;11.590;2023-02-14T01:07:42;97256.19;;;2.30;93.20
15405;BME280;7801;48.124;11.590;2023-02-14T01:10:08;97255.25;;;2.10;93.62
15405;BME280;7801;48.124;11.590;2023-02-14T01:12:33;97253.97;;;2.27;92.74
15405;BME280;7801;48.124;11.590;2023-02-14T01:14:59;97251.06;;;2.16;92.32
15405;BME280;7801;48.124;11.590;2023-02-14T01:17:24;97251.31;;;1.86;93.88
15405;BME280;7801;48.124;11.590;2023-02-14T01:19:53;97258.31;;;2.14;93.08
15405;BME280;7801;48.124;11.590;2023-02-14T01:22:19;97252.31;;;2.20;92.96
15405;BME280;7801;48.124;11.590;2023-02-14T01:24:44;97246.22;;;2.13;92.98
15405;BME280;7801;48.124;11.590;2023-02-14T01:27:10;97244.91;;;1.95;93.40
15405;BME280;7801;48.124;11.590;2023-02-14T01:29:35;97237.41;;;1.86;94.10
15405;BME280;7801;48.124;11.590;2023-02-14T01:32:01;97240.84;;;1.86;94.12
15405;BME280;7801;48.124;11.590;2023-02-14T01:34:26;97249.47;;;2.15;93.28
15405;BME280;7801;48.124;11.590;2023-02-14T01:36:51;97250.19;;;2.02;93.08
15405;BME280;7801;48.124;11.590;2023-02-14T01:39:17;97252.38;;;1.98;92.90
15405;BME280;7801;48.124;11.590;2023-02-14T01:41:44;97262.66;;;1.51;95.12
15405;BME280;7801;48.124;11.590;2023-02-14T01:46:38;97254.03;;;1.78;94.58
15405;BME280;7801;48.124;11.590;2023-02-14T01:49:16;97264.13;;;1.81;94.81
15405;BME280;7801;48.124;11.590;2023-02-14T01:52:16;97253.12;;;1.92;94.40
15405;BME280;7801;48.124;11.590;2023-02-14T01:54:56;97257.37;;;1.93;94.45
15405;BME280;7801;48.124;11.590;2023-02-14T01:57:29;97247.53;;;1.95;94.50
15405;BME280;7801;48.124;11.590;2023-02-14T01:59:58;97252.56;;;1.97;94.81
15405;BME280;7801;48.124;11.590;2023-02-14T02:02:43;97258.31;;;2.14;94.26
15405;BME280;7801;48.124;11.590;2023-02-14T02:05:10;97256.53;;;1.86;94.38
15405;BME280;7801;48.124;11.590;2023-02-14T02:07:36;97255.41;;;1.74;94.80
15405;BME280;7801;48.124;11.590;2023-02-14T02:10:04;97256.75;;;1.63;95.25
15405;BME280;7801;48.124;11.590;2023-02-14T02:12:29;97253.84;;;1.80;95.12
15405;BME280;7801;48.124;11.590;2023-02-14T02:14:56;97253.09;;;1.86;95.01
15405;BME280;7801;48.124;11.590;2023-02-14T02:17:43;97242.53;;;1.72;94.86
15405;BME280;7801;48.124;11.590;2023-02-14T02:26:19;97251.19;;;1.73;93.87
15405;BME280;7801;48.124;11.590;2023-02-14T02:31:50;97240.72;;;1.73;93.18
15405;BME280;7801;48.124;11.590;2023-02-14T02:47:58;97236.63;;;1.64;93.69
15405;BME280;7801;48.124;11.590;2023-02-14T02:50:36;97232.16;;;1.58;93.82
15405;BME280;7801;48.124;11.590;2023-02-14T02:53:51;97223.78;;;1.69;93.37
15405;BME280;7801;48.124;11.590;2023-02-14T02:56:33;97219.09;;;1.86;92.54
15405;BME280;7801;48.124;11.590;2023-02-14T02:59:15;97215.06;;;1.83;92.43
15405;BME280;7801;48.124;11.590;2023-02-14T03:04:31;97220.22;;;1.77;92.19
15405;BME280;7801;48.124;11.590;2023-02-14T03:07:16;97232.00;;;1.94;91.76
15405;BME280;7801;48.124;11.590;2023-02-14T03:19:07;97218.72;;;1.61;91.71
15405;BME280;7801;48.124;11.590;2023-02-14T03:22:25;97227.56;;;1.60;91.54
15405;BME280;7801;48.124;11.590;2023-02-14T03:24:50;97225.34;;;1.35;93.11
15405;BME280;7801;48.124;11.590;2023-02-14T03:27:31;97241.94;;;1.49;92.61
15405;BME280;7801;48.124;11.590;2023-02-14T03:32:56;97230.97;;;1.60;92.39
15405;BME280;7801;48.124;11.590;2023-02-14T03:35:31;97226.56;;;1.61;91.75
15405;BME280;7801;48.124;11.590;2023-02-14T03:40:47;97210.19;;;1.52;91.78
15405;BME280;7801;48.124;11.590;2023-02-14T03:43:26;97221.47;;;1.31;92.77
15405;BME280;7801;48.124;11.590;2023-02-14T03:46:02;97233.28;;;1.27;92.97
15405;BME280;7801;48.124;11.590;2023-02-14T03:48:31;97234.44;;;1.18;93.44
15405;BME280;7801;48.124;11.590;2023-02-14T03:50:58;97233.44;;;1.19;93.20
15405;BME280;7801;48.124;11.590;2023-02-14T03:53:27;97237.28;;;1.45;92.73
15405;BME280;7801;48.124;11.590;2023-02-14T03:58:30;97235.28;;;1.47;92.89
15405;BME280;7801;48.124;11.590;2023-02-14T04:01:18;97232.19;;;1.36;92.39
15405;BME280;7801;48.124;11.590;2023-02-14T04:03:46;97231.81;;;1.18;93.29
15405;BME280;7801;48.124;11.590;2023-02-14T04:06:12;97231.34;;;1.57;92.60
15405;BME280;7801;48.124;11.590;2023-02-14T04:08:38;97230.59;;;1.63;92.03
15405;BME280;7801;48.124;11.590;2023-02-14T04:11:03;97231.25;;;1.23;93.08
15405;BME280;7801;48.124;11.590;2023-02-14T04:13:29;97230.94;;;1.11;93.93
15405;BME280;7801;48.124;11.590;2023-02-14T04:15:54;97229.69;;;1.28;93.84
15405;BME280;7801;48.124;11.590;2023-02-14T04:18:20;97237.66;;;0.99;94.68
15405;BME280;7801;48.124;11.590;2023-02-14T04:21:04;97234.53;;;1.10;94.97
15405;BME280;7801;48.124;11.590;2023-02-14T04:23:30;97222.66;;;1.29;94.24
15405;BME280;7801;48.124;11.590;2023-02-14T04:25:55;97224.81;;;1.47;93.23
15405;BME280;7801;48.124;11.590;2023-02-14T04:28:20;97227.06;;;1.50;93.29
15405;BME280;7801;48.124;11.590;2023-02-14T04:30:46;97231.12;;;1.31;93.14
15405;BME280;7801;48.124;11.590;2023-02-14T04:33:11;97225.41;;;1.21;93.05
15405;BME280;7801;48.124;11.590;2023-02-14T04:35:36;97226.56;;;0.97;93.46
15405;BME280;7801;48.124;11.590;2023-02-14T04:38:03;97232.78;;;0.96;93.78
15405;BME280;7801;48.124;11.590;2023-02-14T04:40:29;97227.84;;;1.22;93.56
15405;BME280;7801;48.124;11.590;2023-02-14T04:42:54;97229.94;;;1.12;93.57
15405;BME280;7801;48.124;11.590;2023-02-14T04:45:20;97229.00;;;0.98;94.16
15405;BME280;7801;48.124;11.590;2023-02-14T04:47:46;97224.81;;;1.04;93.89
15405;BME280;7801;48.124;11.590;2023-02-14T04:50:12;97224.06;;;0.89;94.33
15405;BME280;7801;48.124;11.590;2023-02-14T04:52:38;97219.53;;;0.97;94.94
15405;BME280;7801;48.124;11.590;2023-02-14T04:55:03;97213.16;;;1.00;94.23
15405;BME280;7801;48.124;11.590;2023-02-14T04:57:29;97210.84;;;1.12;94.00
15405;BME280;7801;48.124;11.590;2023-02-14T04:59:55;97207.91;;;1.00;94.09
15405;BME280;7801;48.124;11.590;2023-02-14T05:02:20;97205.16;;;0.87;94.24
15405;BME280;7801;48.124;11.590;2023-02-14T05:04:45;97214.34;;;1.19;93.75
15405;BME280;7801;48.124;11.590;2023-02-14T05:07:11;97211.63;;;1.33;92.84
15405;BME280;7801;48.124;11.590;2023-02-14T05:09:36;97211.75;;;1.47;91.95
15405;BME280;7801;48.124;11.590;2023-02-14T05:12:02;97212.78;;;1.24;91.50
15405;BME280;7801;48.124;11.590;2023-02-14T05:14:27;97201.13;;;1.06;92.21
15405;BME280;7801;48.124;11.590;2023-02-14T05:16:52;97196.75;;;0.70;93.62
15405;BME280;7801;48.124;11.590;2023-02-14T05:19:18;97195.97;;;0.91;93.44
15405;BME280;7801;48.124;11.590;2023-02-14T05:21:43;97198.66;;;0.97;92.82
15405;BME280;7801;48.124;11.590;2023-02-14T05:24:08;97192.53;;;1.12;92.16
15405;BME280;7801;48.124;11.590;2023-02-14T05:26:34;97201.38;;;0.89;92.48
15405;BME280;7801;48.124;11.590;2023-02-14T05:28:59;97188.59;;;0.58;93.83
15405;BME280;7801;48.124;11.590;2023-02-14T05:31:24;97200.50;;;0.46;94.72
15405;BME280;7801;48.124;11.590;2023-02-14T05:33:50;97190.50;;;0.50;95.44
15405;BME280;7801;48.124;11.590;2023-02-14T05:36:15;97189.13;;;0.90;93.85
15405;BME280;7801;48.124;11.590;2023-02-14T05:38:40;97199.81;;;0.95;93.62
15405;BME280;7801;48.124;11.590;2023-02-14T05:41:06;97191.97;;;0.74;93.87
15405;BME280;7801;48.124;11.590;2023-02-14T05:43:31;97191.72;;;0.90;93.22
15405;BME280;7801;48.124;11.590;2023-02-14T05:45:57;97199.19;;;1.14;92.58
15405;BME280;7801;48.124;11.590;2023-02-14T05:48:23;97198.69;;;1.04;92.44
15405;BME280;7801;48.124;11.590;2023-02-14T05:50:48;97209.94;;;1.04;92.75
15405;BME280;7801;48.124;11.590;2023-02-14T05:53:14;97202.44;;;1.16;92.04
15405;BME280;7801;48.124;11.590;2023-02-14T05:55:40;97209.50;;;0.58;93.33
15405;BME280;7801;48.124;11.590;2023-02-14T05:58:06;97208.59;;;0.51;94.27
15405;BME280;7801;48.124;11.590;2023-02-14T06:00:31;97203.00;;;0.90;94.01
15405;BME280;7801;48.124;11.590;2023-02-14T06:02:57;97208.75;;;0.86;93.76
15405;BME280;7801;48.124;11.590;2023-02-14T06:05:22;97206.31;;;1.20;92.39
15405;BME280;7801;48.124;11.590;2023-02-14T06:07:48;97204.94;;;1.24;92.00
15405;BME280;7801;48.124;11.590;2023-02-14T06:10:19;97209.84;;;0.91;92.25
15405;BME280;7801;48.124;11.590;2023-02-14T06:12:47;97213.88;;;0.94;92.82
15405;BME280;7801;48.124;11.590;2023-02-14T06:15:13;97203.78;;;1.33;91.71
15405;BME280;7801;48.124;11.590;2023-02-14T06:17:38;97212.25;;;0.93;92.58
15405;BME280;7801;48.124;11.590;2023-02-14T06:20:04;97210.53;;;1.00;92.73
15405;BME280;7801;48.124;11.590;2023-02-14T06:22:30;97214.13;;;0.99;92.56
15405;BME280;7801;48.124;11.590;2023-02-14T06:24:55;97220.34;;;0.98;92.73
15405;BME280;7801;48.124;11.590;2023-02-14T06:27:21;97216.03;;;0.69;93.12
15405;BME280;7801;48.124;11.590;2023-02-14T06:29:46;97214.97;;;0.85;93.32
15405;BME280;7801;48.124;11.590;2023-02-14T06:32:11;97222.09;;;1.12;92.40
15405;BME280;7801;48.124;11.590;2023-02-14T06:34:37;97224.72;;;1.12;92.21
15405;BME280;7801;48.124;11.590;2023-02-14T06:37:05;97228.94;;;1.13;92.48
15405;BME280;7801;48.124;11.590;2023-02-14T06:39:30;97228.06;;;1.27;91.78
15405;BME280;7801;48.124;11.590;2023-02-14T06:41:56;97227.66;;;1.24;91.38
15405;BME280;7801;48.124;11.590;2023-02-14T06:44:21;97228.84;;;1.21;91.53
15405;BME280;7801;48.124;11.590;2023-02-14T06:46:46;97232.16;;;0.94;92.41
15405;BME280;7801;48.124;11.590;2023-02-14T06:49:12;97227.44;;;1.04;92.75
15405;BME280;7801;48.124;11.590;2023-02-14T06:51:37;97217.50;;;1.14;92.73
15405;BME280;7801;48.124;11.590;2023-02-14T06:54:02;97218.37;;;1.21;92.10
15405;BME280;7801;48.124;11.590;2023-02-14T06:56:28;97223.06;;;0.90;92.46
15405;BME280;7801;48.124;11.590;2023-02-14T06:58:53;97218.16;;;0.80;93.45
15405;BME280;7801;48.124;11.590;2023-02-14T07:01:19;97216.31;;;0.59;93.84
15405;BME280;7801;48.124;11.590;2023-02-14T07:03:44;97222.16;;;0.97;93.08
15405;BME280;7801;48.124;11.590;2023-02-14T07:06:09;97216.38;;;1.02;92.56
15405;BME280;7801;48.124;11.590;2023-02-14T07:08:35;97216.31;;;0.95;92.57
15405;BME280;7801;48.124;11.590;2023-02-14T07:11:00;97224.41;;;1.22;91.91
15405;BME280;7801;48.124;11.590;2023-02-14T07:13:26;97217.88;;;1.32;91.03
15405;BME280;7801;48.124;11.590;2023-02-14T07:15:51;97215.97;;;1.48;90.70
15405;BME280;7801;48.124;11.590;2023-02-14T07:18:16;97219.28;;;1.35;90.56
15405;BME280;7801;48.124;11.590;2023-02-14T07:20:41;97221.81;;;1.50;90.61
15405;BME280;7801;48.124;11.590;2023-02-14T07:23:09;97219.22;;;1.50;89.89
15405;BME280;7801;48.124;11.590;2023-02-14T07:25:35;97215.12;;;1.41;89.53
15405;BME280;7801;48.124;11.590;2023-02-14T07:28:00;97213.31;;;1.69;89.39
15405;BME280;7801;48.124;11.590;2023-02-14T07:30:26;97225.69;;;1.54;90.57
15405;BME280;7801;48.124;11.590;2023-02-14T07:32:52;97200.41;;;5.43;100.00
15405;BME280;7801;48.124;11.590;2023-02-14T07:35:17;97202.22;;;6.17;100.00
15405;BME280;7801;48.124;11.590;2023-02-14T07:37:42;97192.50;;;7.14;81.71
15405;BME280;7801;48.124;11.590;2023-02-14T07:40:08;97184.62;;;8.66;71.88
15405;BME280;7801;48.124;11.590;2023-02-14T07:42:33;97187.25;;;9.06;66.56
15405;BME280;7801;48.124;11.590;2023-02-14T07:44:59;97183.38;;;9.42;62.63
15405;BME280;7801;48.124;11.590;2023-02-14T07:47:24;97193.03;;;9.48;61.03
15405;BME280;7801;48.124;11.590;2023-02-14T07:49:50;97184.19;;;9.59;58.57
15405;BME280;7801;48.124;11.590;2023-02-14T07:52:15;97182.59;;;9.75;58.44
15405;BME280;7801;48.124;11.590;2023-02-14T07:54:41;97180.97;;;9.91;57.09
15405;BME280;7801;48.124;11.590;2023-02-14T07:57:06;97182.84;;;9.74;56.84
15405;BME280;7801;48.124;11.590;2023-02-14T07:59:32;97190.22;;;9.55;57.22
15405;BME280;7801;48.124;11.590;2023-02-14T08:01:57;97188.78;;;9.19;55.79
15405;BME280;7801;48.124;11.590;2023-02-14T08:04:22;97182.50;;;8.16;57.00
15405;BME280;7801;48.124;11.590;2023-02-14T08:06:51;97191.28;;;5.71;64.87
15405;BME280;7801;48.124;11.590;2023-02-14T08:09:17;97195.41;;;4.14;71.78
15405;BME280;7801;48.124;11.590;2023-02-14T08:11:52;97187.38;;;3.24;76.57
15405;BME280;7801;48.124;11.590;2023-02-14T08:14:37;97197.00;;;2.84;79.13
15405;BME280;7801;48.124;11.590;2023-02-14T08:17:03;97188.63;;;2.54;81.32
15405;BME280;7801;48.124;11.590;2023-02-14T08:19:29;97179.75;;;2.48;82.96
15405;BME280;7801;48.124;11.590;2023-02-14T08:21:55;97176.72;;;2.51;83.29
15405;BME280;7801;48.124;11.590;2023-02-14T08:24:20;97177.81;;;2.70;83.03
15405;BME280;7801;48.124;11.590;2023-02-14T08:26:45;97190.94;;;2.29;83.76
15405;BME280;7801;48.124;11.590;2023-02-14T08:29:11;97181.50;;;2.34;84.34
15405;BME280;7801;48.124;11.590;2023-02-14T08:31:36;97182.31;;;2.35;83.98
15405;BME280;7801;48.124;11.590;2023-02-14T08:34:03;97175.56;;;2.60;83.70
15405;BME280;7801;48.124;11.590;2023-02-14T08:36:29;97190.38;;;2.40;84.39
15405;BME280;7801;48.124;11.590;2023-02-14T08:38:54;97175.56;;;2.60;83.69
15405;BME280;7801;48.124;11.590;2023-02-14T08:41:22;97184.84;;;2.15;84.83
15405;BME280;7801;48.124;11.590;2023-02-14T08:43:48;97186.47;;;1.88;86.42
15405;BME280;7801;48.124;11.590;2023-02-14T08:46:13;97187.28;;;1.89;86.64
15405;BME280;7801;48.124;11.590;2023-02-14T08:48:41;97181.16;;;2.03;85.78
15405;BME280;7801;48.124;11.590;2023-02-14T08:51:08;97193.75;;;1.93;86.54
15405;BME280;7801;48.124;11.590;2023-02-14T08:53:34;97199.72;;;1.80;86.69
15405;BME280;7801;48.124;11.590;2023-02-14T08:56:07;97187.38;;;2.02;86.61
15405;BME280;7801;48.124;11.590;2023-02-14T08:58:34;97181.16;;;2.44;85.04
15405;BME280;7801;48.124;11.590;2023-02-14T09:01:13;97192.31;;;2.18;84.69
15405;BME280;7801;48.124;11.590;2023-02-14T09:03:39;97193.94;;;1.91;85.64
15405;BME280;7801;48.124;11.590;2023-02-14T09:06:06;97203.34;;;1.79;86.94
15405;BME280;7801;48.124;11.590;2023-02-14T09:08:32;97202.59;;;1.57;87.69
15405;BME280;7801;48.124;11.590;2023-02-14T09:11:05;97204.84;;;1.95;86.81
15405;BME280;7801;48.124;11.590;2023-02-14T09:13:31;97205.88;;;1.66;86.85
15405;BME280;7801;48.124;11.590;2023-02-14T09:15:56;97208.34;;;1.74;86.57
15405;BME280;7801;48.124;11.590;2023-02-14T09:18:21;97200.28;;;2.03;85.81
15405;BME280;7801;48.124;11.590;2023-02-14T09:20:47;97196.56;;;2.26;86.08
15405;BME280;7801;48.124;11.590;2023-02-14T09:23:12;97203.97;;;2.16;85.45
15405;BME280;7801;48.124;11.590;2023-02-14T09:25:37;97207.00;;;2.19;85.28
15405;BME280;7801;48.124;11.590;2023-02-14T09:28:03;97202.34;;;2.15;85.75
15405;BME280;7801;48.124;11.590;2023-02-14T09:30:28;97192.56;;;1.95;86.57
15405;BME280;7801;48.124;11.590;2023-02-14T09:32:54;97184.78;;;2.02;86.82
15405;BME280;7801;48.124;11.590;2023-02-14T09:35:19;97187.38;;;2.02;86.99
15405;BME280;7801;48.124;11.590;2023-02-14T09:37:44;97194.25;;;2.03;87.06
15405;BME280;7801;48.124;11.590;2023-02-14T09:40:30;97193.06;;;2.05;87.11
15405;BME280;7801;48.124;11.590;2023-02-14T09:43:57;97182.91;;;1.96;87.50
15405;BME280;7801;48.124;11.590;2023-02-14T09:46:14;97185.19;;;2.05;87.87
15405;BME280;7801;48.124;11.590;2023-02-14T09:48:45;97189.81;;;2.03;87.97
15405;BME280;7801;48.124;11.590;2023-02-14T09:51:14;97183.38;;;2.47;86.79
15405;BME280;7801;48.124;11.590;2023-02-14T09:53:45;97170.28;;;2.54;86.08
15405;BME280;7801;48.124;11.590;2023-02-14T09:56:18;97175.81;;;2.85;85.27
15405;BME280;7801;48.124;11.590;2023-02-14T10:01:44;97168.41;;;3.22;83.76
15405;BME280;7801;48.124;11.590;2023-02-14T10:04:25;97168.00;;;3.25;83.19
15405;BME280;7801;48.124;11.590;2023-02-14T10:07:39;97168.19;;;3.03;83.98
15405;BME280;7801;48.124;11.590;2023-02-14T10:10:15;97169.62;;;3.06;84.29
15405;BME280;7801;48.124;11.590;2023-02-14T10:12:48;97164.38;;;3.39;83.58
15405;BME280;7801;48.124;11.590;2023-02-14T10:15:27;97163.75;;;3.57;82.37
15405;BME280;7801;48.124;11.590;2023-02-14T10:18:03;97158.72;;;3.68;81.79
15405;BME280;7801;48.124;11.590;2023-02-14T10:20:42;97163.56;;;3.58;81.70
15405;BME280;7801;48.124;11.590;2023-02-14T10:23:38;97158.91;;;3.54;82.90
15405;BME280;7801;48.124;11.590;2023-02-14T10:26:23;97152.66;;;3.68;82.34
15405;BME280;7801;48.124;11.590;2023-02-14T10:28:51;97142.63;;;4.23;80.50
15405;BME280;7801;48.124;11.590;2023-02-14T10:31:22;97147.06;;;4.29;80.00
15405;BME280;7801;48.124;11.590;2023-02-14T10:33:54;97143.81;;;4.27;79.75
15405;BME280;7801;48.124;11.590;2023-02-14T10:36:40;97143.75;;;4.40;79.69
15405;BME280;7801;48.124;11.590;2023-02-14T10:44:47;97121.59;;;12.02;69.26
15405;BME280;7801;48.124;11.590;2023-02-14T10:50:18;97132.03;;;14.49;53.11
15405;BME280;7801;48.124;11.590;2023-02-14T10:56:12;97118.06;;;14.62;47.71
15405;BME280;7801;48.124;11.590;2023-02-14T10:58:43;97107.22;;;15.31;47.53
15405;BME280;7801;48.124;11.590;2023-02-14T11:01:12;97099.78;;;15.62;45.43
15405;BME280;7801;48.124;11.590;2023-02-14T11:03:40;97107.41;;;15.79;44.40
15405;BME280;7801;48.124;11.590;2023-02-14T11:06:07;97098.50;;;15.84;44.20
15405;BME280;7801;48.124;11.590;2023-02-14T11:08:40;97095.91;;;15.78;43.85
15405;BME280;7801;48.124;11.590;2023-02-14T11:11:29;97100.62;;;15.58;44.19
15405;BME280;7801;48.124;11.590;2023-02-14T11:13:55;97089.06;;;15.62;44.33
15405;BME280;7801;48.124;11.590;2023-02-14T11:16:35;97092.97;;;15.41;44.79
15405;BME280;7801;48.124;11.590;2023-02-14T11:21:41;97087.44;;;14.93;44.96
15405;BME280;7801;48.124;11.590;2023-02-14T11:26:47;97080.22;;;14.94;45.51
15405;BME280;7801;48.124;11.590;2023-02-14T11:29:18;97076.09;;;15.11;44.70
15405;BME280;7801;48.124;11.590;2023-02-14T11:31:45;97070.62;;;15.27;44.66
15405;BME280;7801;48.124;11.590;2023-02-14T11:34:38;97066.56;;;13.51;44.84
15405;BME280;7801;48.124;11.590;2023-02-14T11:39:46;97075.16;;;9.68;56.63
15405;BME280;7801;48.124;11.590;2023-02-14T11:42:11;97066.31;;;8.78;60.29
15405;BME280;7801;48.124;11.590;2023-02-14T11:44:37;97068.69;;;7.83;65.07
15405;BME280;7801;48.124;11.590;2023-02-14T11:47:28;97068.81;;;7.06;68.42
15405;BME280;7801;48.124;11.590;2023-02-14T11:49:59;97061.47;;;6.67;70.60
15405;BME280;7801;48.124;11.590;2023-02-14T11:52:26;97057.13;;;6.61;71.66
15405;BME280;7801;48.124;11.590;2023-02-14T11:54:55;97051.94;;;6.54;72.53
15405;BME280;7801;48.124;11.590;2023-02-14T11:57:36;97050.19;;;6.48;72.64
15405;BME280;7801;48.124;11.590;2023-02-14T12:00:13;97059.22;;;5.92;75.39
15405;BME280;7801;48.124;11.590;2023-02-14T12:02:43;97047.81;;;5.98;75.91
15405;BME280;7801;48.124;11.590;2023-02-14T12:05:26;97057.75;;;5.96;76.08
15405;BME280;7801;48.124;11.590;2023-02-14T12:07:57;97051.31;;;5.74;77.04
15405;BME280;7801;48.124;11.590;2023-02-14T12:10:37;97042.53;;;5.80;76.97
15405;BME280;7801;48.124;11.590;2023-02-14T12:13:23;97038.41;;;5.84;77.35
15405;BME280;7801;48.124;11.590;2023-02-14T12:15:55;97036.31;;;5.93;76.90
15405;BME280;7801;48.124;11.590;2023-02-14T12:18:35;97031.44;;;5.96;76.94
15405;BME280;7801;48.124;11.590;2023-02-14T12:26:42;97020.59;;;6.34;75.74
15405;BME280;7801;48.124;11.590;2023-02-14T12:29:28;97022.72;;;6.67;77.11
15405;BME280;7801;48.124;11.590;2023-02-14T12:32:00;97009.94;;;8.33;77.17
15405;BME280;7801;48.124;11.590;2023-02-14T12:34:26;97014.28;;;7.58;70.90
15405;BME280;7801;48.124;11.590;2023-02-14T12:37:29;97016.38;;;7.33;70.98
15405;BME280;7801;48.124;11.590;2023-02-14T12:40:16;97012.59;;;7.17;71.67
15405;BME280;7801;48.124;11.590;2023-02-14T12:43:03;97017.06;;;6.94;72.73
15405;BME280;7801;48.124;11.590;2023-02-14T12:48:55;97009.22;;;6.75;74.00
15405;BME280;7801;48.124;11.590;2023-02-14T12:57:43;97005.75;;;6.51;75.09
15405;BME280;7801;48.124;11.590;2023-02-14T13:06:23;96995.25;;;6.33;76.23
15405;BME280;7801;48.124;11.590;2023-02-14T13:09:17;96998.31;;;6.60;75.80
15405;BME280;7801;48.124;11.590;2023-02-14T13:14:39;96984.69;;;6.63;75.85
15405;BME280;7801;48.124;11.590;2023-02-14T13:22:56;96966.78;;;6.65;75.38
15405;BME280;7801;48.124;11.590;2023-02-14T13:25:27;96965.78;;;6.78;75.02
15405;BME280;7801;48.124;11.590;2023-02-14T13:27:59;96962.69;;;6.93;74.77
15405;BME280;7801;48.124;11.590;2023-02-14T13:32:57;96960.97;;;7.10;73.23
15405;BME280;7801;48.124;11.590;2023-02-14T13:35:27;96962.13;;;7.02;74.21
15405;BME280;7801;48.124;11.590;2023-02-14T13:37:57;96959.34;;;7.32;73.27
15405;BME280;7801;48.124;11.590;2023-02-14T13:40:26;96952.56;;;7.36;72.83
15405;BME280;7801;48.124;11.590;2023-02-14T13:42:58;96960.31;;;7.54;72.72
15405;BME280;7801;48.124;11.590;2023-02-14T13:48:18;96958.09;;;7.75;71.49
15405;BME280;7801;48.124;11.590;2023-02-14T13:50:49;96952.72;;;7.70;71.18
15405;BME280;7801;48.124;11.590;2023-02-14T13:53:35;96945.97;;;7.62;73.25
15405;BME280;7801;48.124;11.590;2023-02-14T13:56:30;96949.12;;;7.76;72.57
15405;BME280;7801;48.124;11.590;2023-02-14T13:59:04;96947.91;;;8.23;71.10
15405;BME280;7801;48.124;11.590;2023-02-14T14:01:45;96940.44;;;8.20;70.26
15405;BME280;7801;48.124;11.590;2023-02-14T14:17:36;96934.56;;;7.10;75.08
15405;BME280;7801;48.124;11.590;2023-02-14T14:22:57;96944.78;;;6.71;76.45
15405;BME280;7801;48.124;11.590;2023-02-14T14:25:40;96945.09;;;6.51;77.33
15405;BME280;7801;48.124;11.590;2023-02-14T14:28:18;96935.03;;;6.60;77.28
15405;BME280;7801;48.124;11.590;2023-02-14T14:30:44;96934.91;;;6.55;77.87
15405;BME280;7801;48.124;11.590;2023-02-14T14:33:32;96934.78;;;6.38;78.17
15405;BME280;7801;48.124;11.590;2023-02-14T14:36:01;96932.38;;;6.37;78.18
15405;BME280;7801;48.124;11.590;2023-02-14T14:38:29;96930.09;;;6.40;78.22
15405;BME280;7801;48.124;11.590;2023-02-14T14:40:55;96928.47;;;6.51;77.93
15405;BME280;7801;48.124;11.590;2023-02-14T14:43:28;96922.66;;;6.61;77.31
15405;BME280;7801;48.124;11.590;2023-02-14T14:45:56;96918.41;;;6.71;77.16
15405;BME280;7801;48.124;11.590;2023-02-14T14:48:28;96921.28;;;6.70;77.02
15405;BME280;7801;48.124;11.590;2023-02-14T14:50:55;96920.81;;;6.73;77.04
15405;BME280;7801;48.124;11.590;2023-02-14T14:53:23;96924.25;;;6.50;78.25
15405;BME280;7801;48.124;11.590;2023-02-14T14:55:50;96917.94;;;6.51;78.20
15405;BME280;7801;48.124;11.590;2023-02-14T14:58:38;96916.47;;;6.55;78.23
15405;BME280;7801;48.124;11.590;2023-02-14T15:01:06;96911.28;;;6.37;78.69
15405;BME280;7801;48.124;11.590;2023-02-14T15:03:35;96911.16;;;6.20;79.31
15405;BME280;7801;48.124;11.590;2023-02-14T15:08:37;96908.69;;;6.07;80.39
15405;BME280;7801;48.124;11.590;2023-02-14T15:11:09;96906.75;;;6.14;80.22
15405;BME280;7801;48.124;11.590;2023-02-14T15:13:40;96902.22;;;6.33;79.88
15405;BME280;7801;48.124;11.590;2023-02-14T15:16:26;96910.91;;;6.22;79.96
15405;BME280;7801;48.124;11.590;2023-02-14T15:18:57;96905.75;;;6.27;80.21
15405;BME280;7801;48.124;11.590;2023-02-14T15:21:23;96900.84;;;6.30;79.91
15405;BME280;7801;48.124;11.590;2023-02-14T15:23:50;96906.75;;;6.02;80.74
15405;BME280;7801;48.124;11.590;2023-02-14T15:26:21;96913.34;;;6.23;80.10
15405;BME280;7801;48.124;11.590;2023-02-14T15:28:56;96911.38;;;6.18;80.17